Airfield :
LOGIN :

Register | Disclaimer

   EN    FR    IT 

 










Legend :    VFR   Marginal VFR   IFR   Intensive IFR   Very Intensive IFR
Visi :
Ceiling :
>= 8 km
>= 3000ft
5 to 8 km
1000 to 3000 ft
1500m to 5 km
500 to 1000 ft
800 to 1500m
200 to 500 ft
< 800m
< 200 ft
Symbols :   Thunderstorms  Fog  Heavy snow  Heavy precipitations  Wind > 20 kt
SIGMETs :     Misc.  Thunderstorms  Icing  Turbulence  Mountain Waves  Volcanic Ashes






- Airport Elevation : 388 ft
- IATA code : QYR


LFQB - Troyes Barberey

CURRENT METAR :
  • 300300Z AUTO 01004KT 350V050 7000 OVC005 05/04 Q1022

EXPIRED METARs :
  • 300230Z AUTO 02004KT 350V060 7000 OVC006 05/04 Q1022
  • 300200Z AUTO 01006KT 7000 OVC006 05/04 Q1022
  • 300130Z AUTO 36006KT 340V040 7000 OVC006 05/04 Q1022
  • 300100Z AUTO 36005KT 7000 OVC007 05/04 Q1022
  • 300030Z AUTO 03005KT 8000 OVC007 05/04 Q1022
  • 300000Z AUTO VRB03KT 7000 OVC008 05/05 Q1022

TAF N/A



MET'MAP, your aeronautical weather chart ! - Copyright ORBIFLY December 2007 - Disclaimer

ORBIFLY MET'MAP TEAM :

Programming & Development : Alexandra Zaïnal
Original concept : Baudouin d'Aumeries
Technical & hardware support : Manuel Goepfert
Assistance : Marc-Olivier Méhu




SOURCES & CREDITS :

   NOAA